Terminal Aerodrome Forecast
Issued by NWS Blacksburg, VA

Home | Current Version | Previous Version | Text Only | Print | Product List | Glossary On
Versions: 1 2 3 4 5 6 7 8 9 10 11 12 13 14 15 16 17 18 19
000
FTUS41 KRNK 272340
TAFDAN
TAF
KDAN 272340Z 2800/2824 14004KT P6SM VCTS SCT025CB BKN250
     FM280300 VRB03KT P6SM BKN045
     FM280900 00000KT 5SM BR OVC025
     FM281500 17004KT P6SM OVC015
     FM281800 18006KT P6SM VCTS BKN025 OVC045CB=

USA.gov is the U.S. government's official web portal to all federal, state and local government web resources and services.